ADDS METAR Data INFO
IDs: Format: Raw Decoded Include TAF

Data at: 1725 UTC 18 Jan 2018

METAR for:KMNN (Marion Muni, OH, US)
Text:KMNN 181653Z AUTO 21012KT 9SM CLR M07/M13 A3021 RMK AO2 SLP249 T10721128
Temperature: -7.2°C ( 19°F)
Dewpoint:-12.8°C ( 9°F) [RH = 64%]
Pressure (altimeter):30.21 inches Hg (1023.1 mb) [Sea level pressure: 1024.9 mb]
Winds:from the SSW (210 degrees) at 14 MPH (12 knots; 6.2 m/s)
Visibility: 9 sm ( 14 km)
Ceiling:at least 12,000 feet AGL
Clouds:sky clear below 12,000 feet AGL
QC Flag:automated observation with no human augmentation